sensor_id;sensor_type;location;lat;lon;timestamp;temperature;humidity
47310;DHT22;33046;52.270;6.832;2023-06-22T00:00:11;23.50;85.70
47310;DHT22;33046;52.270;6.832;2023-06-22T00:02:18;23.40;86.30
47310;DHT22;33046;52.270;6.832;2023-06-22T00:04:27;23.40;86.70
47310;DHT22;33046;52.270;6.832;2023-06-22T00:06:33;23.30;86.70
47310;DHT22;33046;52.270;6.832;2023-06-22T00:08:40;23.30;87.00
47310;DHT22;33046;52.270;6.832;2023-06-22T00:10:47;23.30;87.20
47310;DHT22;33046;52.270;6.832;2023-06-22T00:12:54;23.20;87.30
47310;DHT22;33046;52.270;6.832;2023-06-22T00:15:01;23.20;87.40
47310;DHT22;33046;52.270;6.832;2023-06-22T00:17:08;23.20;87.50
47310;DHT22;33046;52.270;6.832;2023-06-22T00:19:15;23.20;87.70
47310;DHT22;33046;52.270;6.832;2023-06-22T00:21:23;23.10;87.70
47310;DHT22;33046;52.270;6.832;2023-06-22T00:23:30;23.20;87.50
47310;DHT22;33046;52.270;6.832;2023-06-22T00:25:37;23.20;87.60
47310;DHT22;33046;52.270;6.832;2023-06-22T00:27:44;23.10;87.70
47310;DHT22;33046;52.270;6.832;2023-06-22T00:29:51;23.10;88.00
47310;DHT22;33046;52.270;6.832;2023-06-22T00:31:58;23.10;87.90
47310;DHT22;33046;52.270;6.832;2023-06-22T00:34:05;23.10;88.10
47310;DHT22;33046;52.270;6.832;2023-06-22T00:36:13;23.00;88.10
47310;DHT22;33046;52.270;6.832;2023-06-22T00:38:21;23.00;88.20
47310;DHT22;33046;52.270;6.832;2023-06-22T00:40:28;23.00;87.90
47310;DHT22;33046;52.270;6.832;2023-06-22T00:42:37;23.00;87.70
47310;DHT22;33046;52.270;6.832;2023-06-22T00:44:44;23.00;87.70
47310;DHT22;33046;52.270;6.832;2023-06-22T00:46:51;23.00;87.80
47310;DHT22;33046;52.270;6.832;2023-06-22T00:48:58;23.00;87.90
47310;DHT22;33046;52.270;6.832;2023-06-22T00:51:07;23.00;87.70
47310;DHT22;33046;52.270;6.832;2023-06-22T00:53:14;22.90;88.00
47310;DHT22;33046;52.270;6.832;2023-06-22T00:55:23;22.90;88.10
47310;DHT22;33046;52.270;6.832;2023-06-22T00:57:30;22.80;88.30
47310;DHT22;33046;52.270;6.832;2023-06-22T00:59:37;22.80;88.20
47310;DHT22;33046;52.270;6.832;2023-06-22T01:01:45;22.80;88.00
47310;DHT22;33046;52.270;6.832;2023-06-22T01:03:52;22.80;88.10
47310;DHT22;33046;52.270;6.832;2023-06-22T01:06:02;22.80;88.40
47310;DHT22;33046;52.270;6.832;2023-06-22T01:08:23;22.80;88.40
47310;DHT22;33046;52.270;6.832;2023-06-22T01:10:38;22.80;88.70
47310;DHT22;33046;52.270;6.832;2023-06-22T01:12:50;22.80;88.60
47310;DHT22;33046;52.270;6.832;2023-06-22T01:15:04;22.70;88.50
47310;DHT22;33046;52.270;6.832;2023-06-22T01:17:15;22.70;88.60
47310;DHT22;33046;52.270;6.832;2023-06-22T01:19:35;22.60;88.30
47310;DHT22;33046;52.270;6.832;2023-06-22T01:21:45;22.60;88.20
47310;DHT22;33046;52.270;6.832;2023-06-22T01:24:02;22.60;87.80
47310;DHT22;33046;52.270;6.832;2023-06-22T01:26:18;22.60;87.90
47310;DHT22;33046;52.270;6.832;2023-06-22T01:28:41;22.60;88.60
47310;DHT22;33046;52.270;6.832;2023-06-22T01:30:51;22.50;88.80
47310;DHT22;33046;52.270;6.832;2023-06-22T01:32:58;22.50;89.30
47310;DHT22;33046;52.270;6.832;2023-06-22T01:35:07;22.50;89.50
47310;DHT22;33046;52.270;6.832;2023-06-22T01:37:15;22.50;89.50
47310;DHT22;33046;52.270;6.832;2023-06-22T01:39:22;22.50;89.60
47310;DHT22;33046;52.270;6.832;2023-06-22T01:41:34;22.40;89.70
47310;DHT22;33046;52.270;6.832;2023-06-22T01:43:43;22.40;89.90
47310;DHT22;33046;52.270;6.832;2023-06-22T01:45:51;22.30;90.00
47310;DHT22;33046;52.270;6.832;2023-06-22T01:47:58;22.40;90.00
47310;DHT22;33046;52.270;6.832;2023-06-22T01:50:07;22.40;90.10
47310;DHT22;33046;52.270;6.832;2023-06-22T01:52:15;22.30;90.20
47310;DHT22;33046;52.270;6.832;2023-06-22T01:54:22;22.30;90.20
47310;DHT22;33046;52.270;6.832;2023-06-22T01:56:29;22.30;90.30
47310;DHT22;33046;52.270;6.832;2023-06-22T01:58:44;22.20;90.20
47310;DHT22;33046;52.270;6.832;2023-06-22T02:00:55;22.20;90.40
47310;DHT22;33046;52.270;6.832;2023-06-22T02:03:08;22.20;90.40
47310;DHT22;33046;52.270;6.832;2023-06-22T02:05:18;22.20;90.50
47310;DHT22;33046;52.270;6.832;2023-06-22T02:07:31;22.20;90.50
47310;DHT22;33046;52.270;6.832;2023-06-22T02:09:44;22.20;90.40
47310;DHT22;33046;52.270;6.832;2023-06-22T02:11:52;22.10;90.50
47310;DHT22;33046;52.270;6.832;2023-06-22T02:14:02;22.10;90.60
47310;DHT22;33046;52.270;6.832;2023-06-22T02:16:10;22.10;90.60
47310;DHT22;33046;52.270;6.832;2023-06-22T02:18:19;22.10;90.50
47310;DHT22;33046;52.270;6.832;2023-06-22T02:20:26;22.10;90.70
47310;DHT22;33046;52.270;6.832;2023-06-22T02:22:35;22.00;90.90
47310;DHT22;33046;52.270;6.832;2023-06-22T02:24:42;22.00;91.20
47310;DHT22;33046;52.270;6.832;2023-06-22T02:26:49;22.00;90.90
47310;DHT22;33046;52.270;6.832;2023-06-22T02:28:56;22.00;91.00
47310;DHT22;33046;52.270;6.832;2023-06-22T02:31:04;22.00;90.90
47310;DHT22;33046;52.270;6.832;2023-06-22T02:33:11;22.00;90.90
47310;DHT22;33046;52.270;6.832;2023-06-22T02:35:18;22.00;91.10
47310;DHT22;33046;52.270;6.832;2023-06-22T02:37:25;22.00;91.30
47310;DHT22;33046;52.270;6.832;2023-06-22T02:39:32;21.90;91.40
47310;DHT22;33046;52.270;6.832;2023-06-22T02:41:39;21.90;91.50
47310;DHT22;33046;52.270;6.832;2023-06-22T02:43:45;21.90;91.50
47310;DHT22;33046;52.270;6.832;2023-06-22T02:45:53;21.90;91.60
47310;DHT22;33046;52.270;6.832;2023-06-22T02:48:02;21.80;91.60
47310;DHT22;33046;52.270;6.832;2023-06-22T02:50:09;21.90;91.50
47310;DHT22;33046;52.270;6.832;2023-06-22T02:52:16;21.80;91.60
47310;DHT22;33046;52.270;6.832;2023-06-22T02:54:23;21.80;91.70
47310;DHT22;33046;52.270;6.832;2023-06-22T02:56:33;21.80;91.90
47310;DHT22;33046;52.270;6.832;2023-06-22T02:58:41;21.80;91.80
47310;DHT22;33046;52.270;6.832;2023-06-22T03:00:50;21.80;92.00
47310;DHT22;33046;52.270;6.832;2023-06-22T03:02:57;21.80;92.20
47310;DHT22;33046;52.270;6.832;2023-06-22T03:05:06;21.80;92.20
47310;DHT22;33046;52.270;6.832;2023-06-22T03:07:13;21.80;92.20
47310;DHT22;33046;52.270;6.832;2023-06-22T03:09:20;21.80;92.40
47310;DHT22;33046;52.270;6.832;2023-06-22T03:11:27;21.70;92.30
47310;DHT22;33046;52.270;6.832;2023-06-22T03:13:34;21.70;92.40
47310;DHT22;33046;52.270;6.832;2023-06-22T03:15:41;21.70;92.60
47310;DHT22;33046;52.270;6.832;2023-06-22T03:17:48;21.70;92.40
47310;DHT22;33046;52.270;6.832;2023-06-22T03:19:55;21.70;92.40
47310;DHT22;33046;52.270;6.832;2023-06-22T03:22:04;21.70;92.50
47310;DHT22;33046;52.270;6.832;2023-06-22T03:24:10;21.70;92.60
47310;DHT22;33046;52.270;6.832;2023-06-22T03:26:18;21.70;92.70
47310;DHT22;33046;52.270;6.832;2023-06-22T03:28:25;21.60;92.70
47310;DHT22;33046;52.270;6.832;2023-06-22T03:30:32;21.60;92.80
47310;DHT22;33046;52.270;6.832;2023-06-22T03:32:40;21.60;93.00
47310;DHT22;33046;52.270;6.832;2023-06-22T03:34:47;21.60;93.10
47310;DHT22;33046;52.270;6.832;2023-06-22T03:36:54;21.60;93.10
47310;DHT22;33046;52.270;6.832;2023-06-22T03:39:03;21.60;93.20
47310;DHT22;33046;52.270;6.832;2023-06-22T03:41:10;21.60;93.40
47310;DHT22;33046;52.270;6.832;2023-06-22T03:43:17;21.60;93.20
47310;DHT22;33046;52.270;6.832;2023-06-22T03:45:24;21.60;93.20
47310;DHT22;33046;52.270;6.832;2023-06-22T03:47:31;21.60;93.20
47310;DHT22;33046;52.270;6.832;2023-06-22T03:49:38;21.60;93.20
47310;DHT22;33046;52.270;6.832;2023-06-22T03:51:45;21.60;93.30
47310;DHT22;33046;52.270;6.832;2023-06-22T03:53:52;21.60;93.50
47310;DHT22;33046;52.270;6.832;2023-06-22T03:56:00;21.60;93.50
47310;DHT22;33046;52.270;6.832;2023-06-22T03:58:07;21.60;93.70
47310;DHT22;33046;52.270;6.832;2023-06-22T04:00:15;21.60;93.80
47310;DHT22;33046;52.270;6.832;2023-06-22T04:02:22;21.60;93.90
47310;DHT22;33046;52.270;6.832;2023-06-22T04:04:28;21.60;93.90
47310;DHT22;33046;52.270;6.832;2023-06-22T04:06:35;21.60;93.80
47310;DHT22;33046;52.270;6.832;2023-06-22T04:08:42;21.60;93.80
47310;DHT22;33046;52.270;6.832;2023-06-22T04:10:49;21.60;93.90
47310;DHT22;33046;52.270;6.832;2023-06-22T04:12:57;21.60;93.90
47310;DHT22;33046;52.270;6.832;2023-06-22T04:15:05;21.60;94.00
47310;DHT22;33046;52.270;6.832;2023-06-22T04:17:12;21.60;94.10
47310;DHT22;33046;52.270;6.832;2023-06-22T04:19:19;21.60;94.10
47310;DHT22;33046;52.270;6.832;2023-06-22T04:21:26;21.70;94.10
47310;DHT22;33046;52.270;6.832;2023-06-22T04:23:33;21.70;94.20
47310;DHT22;33046;52.270;6.832;2023-06-22T04:25:40;21.70;94.10
47310;DHT22;33046;52.270;6.832;2023-06-22T04:27:47;21.70;94.10
47310;DHT22;33046;52.270;6.832;2023-06-22T04:29:55;21.70;94.10
47310;DHT22;33046;52.270;6.832;2023-06-22T04:32:02;21.70;94.20
47310;DHT22;33046;52.270;6.832;2023-06-22T04:34:10;21.70;94.10
47310;DHT22;33046;52.270;6.832;2023-06-22T04:36:17;21.70;94.10
47310;DHT22;33046;52.270;6.832;2023-06-22T04:38:24;21.70;94.10
47310;DHT22;33046;52.270;6.832;2023-06-22T04:40:31;21.80;94.10
47310;DHT22;33046;52.270;6.832;2023-06-22T04:42:39;21.80;94.10
47310;DHT22;33046;52.270;6.832;2023-06-22T04:44:45;21.70;94.10
47310;DHT22;33046;52.270;6.832;2023-06-22T04:46:57;21.80;94.20
47310;DHT22;33046;52.270;6.832;2023-06-22T04:49:05;21.80;94.20
47310;DHT22;33046;52.270;6.832;2023-06-22T04:51:12;21.80;94.10
47310;DHT22;33046;52.270;6.832;2023-06-22T04:53:19;21.80;94.10
47310;DHT22;33046;52.270;6.832;2023-06-22T04:55:26;21.80;94.00
47310;DHT22;33046;52.270;6.832;2023-06-22T04:57:33;21.80;94.00
47310;DHT22;33046;52.270;6.832;2023-06-22T04:59:40;21.80;94.00
47310;DHT22;33046;52.270;6.832;2023-06-22T05:01:47;21.90;94.10
47310;DHT22;33046;52.270;6.832;2023-06-22T05:03:55;21.90;94.10
47310;DHT22;33046;52.270;6.832;2023-06-22T05:06:02;21.90;94.10
47310;DHT22;33046;52.270;6.832;2023-06-22T05:08:09;22.00;94.10
47310;DHT22;33046;52.270;6.832;2023-06-22T05:10:16;22.00;94.00
47310;DHT22;33046;52.270;6.832;2023-06-22T05:12:23;22.10;93.90
47310;DHT22;33046;52.270;6.832;2023-06-22T05:14:30;22.10;93.80
47310;DHT22;33046;52.270;6.832;2023-06-22T05:16:37;22.20;93.70
47310;DHT22;33046;52.270;6.832;2023-06-22T05:18:44;22.20;93.50
47310;DHT22;33046;52.270;6.832;2023-06-22T05:20:53;22.30;93.50
47310;DHT22;33046;52.270;6.832;2023-06-22T05:22:59;22.30;93.30
47310;DHT22;33046;52.270;6.832;2023-06-22T05:25:09;22.30;93.30
47310;DHT22;33046;52.270;6.832;2023-06-22T05:27:16;22.40;93.20
47310;DHT22;33046;52.270;6.832;2023-06-22T05:29:23;22.40;93.10
47310;DHT22;33046;52.270;6.832;2023-06-22T05:31:30;22.50;93.00
47310;DHT22;33046;52.270;6.832;2023-06-22T05:33:37;22.60;92.90
47310;DHT22;33046;52.270;6.832;2023-06-22T05:35:44;22.70;92.80
47310;DHT22;33046;52.270;6.832;2023-06-22T05:37:52;22.80;92.50
47310;DHT22;33046;52.270;6.832;2023-06-22T05:39:59;23.00;92.30
47310;DHT22;33046;52.270;6.832;2023-06-22T05:42:07;23.10;92.00
47310;DHT22;33046;52.270;6.832;2023-06-22T05:44:15;23.20;91.90
47310;DHT22;33046;52.270;6.832;2023-06-22T05:46:23;23.40;91.70
47310;DHT22;33046;52.270;6.832;2023-06-22T05:48:30;23.50;91.50
47310;DHT22;33046;52.270;6.832;2023-06-22T05:50:37;23.70;91.10
47310;DHT22;33046;52.270;6.832;2023-06-22T05:52:44;23.80;90.70
47310;DHT22;33046;52.270;6.832;2023-06-22T05:54:52;23.90;90.30
47310;DHT22;33046;52.270;6.832;2023-06-22T05:56:59;24.10;90.00
47310;DHT22;33046;52.270;6.832;2023-06-22T05:59:06;24.10;89.90
47310;DHT22;33046;52.270;6.832;2023-06-22T06:01:12;24.20;89.70
47310;DHT22;33046;52.270;6.832;2023-06-22T06:03:19;24.40;88.60
47310;DHT22;33046;52.270;6.832;2023-06-22T06:05:26;24.50;87.60
47310;DHT22;33046;52.270;6.832;2023-06-22T06:07:33;24.60;87.60
47310;DHT22;33046;52.270;6.832;2023-06-22T06:09:40;24.80;86.70
47310;DHT22;33046;52.270;6.832;2023-06-22T06:11:48;24.90;86.10
47310;DHT22;33046;52.270;6.832;2023-06-22T06:13:55;25.00;85.20
47310;DHT22;33046;52.270;6.832;2023-06-22T06:16:02;25.20;85.40
47310;DHT22;33046;52.270;6.832;2023-06-22T06:18:09;25.30;84.60
47310;DHT22;33046;52.270;6.832;2023-06-22T06:20:17;25.30;84.30
47310;DHT22;33046;52.270;6.832;2023-06-22T06:22:24;25.40;83.60
47310;DHT22;33046;52.270;6.832;2023-06-22T06:24:31;25.50;83.60
47310;DHT22;33046;52.270;6.832;2023-06-22T06:26:38;25.70;82.80
47310;DHT22;33046;52.270;6.832;2023-06-22T06:28:47;25.70;82.30
47310;DHT22;33046;52.270;6.832;2023-06-22T06:30:54;25.80;82.10
47310;DHT22;33046;52.270;6.832;2023-06-22T06:33:01;25.90;81.50
47310;DHT22;33046;52.270;6.832;2023-06-22T06:35:08;25.90;79.90
47310;DHT22;33046;52.270;6.832;2023-06-22T06:37:16;26.00;79.70
47310;DHT22;33046;52.270;6.832;2023-06-22T06:39:23;26.00;79.20
47310;DHT22;33046;52.270;6.832;2023-06-22T06:41:30;26.30;78.60
47310;DHT22;33046;52.270;6.832;2023-06-22T06:43:37;26.60;79.20
47310;DHT22;33046;52.270;6.832;2023-06-22T06:45:45;26.70;78.10
47310;DHT22;33046;52.270;6.832;2023-06-22T06:47:52;27.00;77.10
47310;DHT22;33046;52.270;6.832;2023-06-22T06:49:59;27.00;77.00
47310;DHT22;33046;52.270;6.832;2023-06-22T06:52:07;27.00;76.70
47310;DHT22;33046;52.270;6.832;2023-06-22T06:54:13;27.00;76.40
47310;DHT22;33046;52.270;6.832;2023-06-22T06:56:20;27.00;76.50
47310;DHT22;33046;52.270;6.832;2023-06-22T06:58:27;27.10;76.30
47310;DHT22;33046;52.270;6.832;2023-06-22T07:00:34;27.20;75.30
47310;DHT22;33046;52.270;6.832;2023-06-22T07:02:44;27.30;75.40
47310;DHT22;33046;52.270;6.832;2023-06-22T07:04:51;27.30;75.20
47310;DHT22;33046;52.270;6.832;2023-06-22T07:07:00;27.30;75.20
47310;DHT22;33046;52.270;6.832;2023-06-22T07:09:07;27.30;75.00
47310;DHT22;33046;52.270;6.832;2023-06-22T07:11:14;27.30;75.50
47310;DHT22;33046;52.270;6.832;2023-06-22T07:13:21;27.30;75.50
47310;DHT22;33046;52.270;6.832;2023-06-22T07:15:28;27.40;75.30
47310;DHT22;33046;52.270;6.832;2023-06-22T07:17:35;27.70;75.40
47310;DHT22;33046;52.270;6.832;2023-06-22T07:19:43;27.80;75.60
47310;DHT22;33046;52.270;6.832;2023-06-22T07:21:50;27.90;75.70
47310;DHT22;33046;52.270;6.832;2023-06-22T07:23:57;27.90;75.00
47310;DHT22;33046;52.270;6.832;2023-06-22T07:26:04;27.80;74.50
47310;DHT22;33046;52.270;6.832;2023-06-22T07:28:11;27.70;75.20
47310;DHT22;33046;52.270;6.832;2023-06-22T07:30:18;27.60;75.40
47310;DHT22;33046;52.270;6.832;2023-06-22T07:32:25;27.60;75.40
47310;DHT22;33046;52.270;6.832;2023-06-22T07:34:32;27.70;75.40
47310;DHT22;33046;52.270;6.832;2023-06-22T07:36:40;27.70;75.40
47310;DHT22;33046;52.270;6.832;2023-06-22T07:38:47;27.90;74.90
47310;DHT22;33046;52.270;6.832;2023-06-22T07:40:53;28.10;74.80
47310;DHT22;33046;52.270;6.832;2023-06-22T07:43:00;28.10;75.20
47310;DHT22;33046;52.270;6.832;2023-06-22T07:45:08;28.30;74.40
47310;DHT22;33046;52.270;6.832;2023-06-22T07:47:15;28.50;74.00
47310;DHT22;33046;52.270;6.832;2023-06-22T07:49:22;28.60;73.30
47310;DHT22;33046;52.270;6.832;2023-06-22T07:51:28;28.70;72.90
47310;DHT22;33046;52.270;6.832;2023-06-22T07:53:37;28.80;72.30
47310;DHT22;33046;52.270;6.832;2023-06-22T07:55:43;28.80;72.60
47310;DHT22;33046;52.270;6.832;2023-06-22T07:57:50;28.90;72.00
47310;DHT22;33046;52.270;6.832;2023-06-22T07:59:57;28.90;71.90
47310;DHT22;33046;52.270;6.832;2023-06-22T08:02:05;28.90;72.20
47310;DHT22;33046;52.270;6.832;2023-06-22T08:04:11;29.00;71.70
47310;DHT22;33046;52.270;6.832;2023-06-22T08:06:18;28.90;71.50
47310;DHT22;33046;52.270;6.832;2023-06-22T08:08:25;28.90;73.10
47310;DHT22;33046;52.270;6.832;2023-06-22T08:10:33;28.80;71.30
47310;DHT22;33046;52.270;6.832;2023-06-22T08:12:40;28.80;71.40
47310;DHT22;33046;52.270;6.832;2023-06-22T08:14:47;28.70;71.60
47310;DHT22;33046;52.270;6.832;2023-06-22T08:16:54;28.70;72.80
47310;DHT22;33046;52.270;6.832;2023-06-22T08:19:01;28.70;73.50
47310;DHT22;33046;52.270;6.832;2023-06-22T08:21:08;28.60;73.70
47310;DHT22;33046;52.270;6.832;2023-06-22T08:23:15;28.50;73.20
47310;DHT22;33046;52.270;6.832;2023-06-22T08:25:22;28.40;72.40
47310;DHT22;33046;52.270;6.832;2023-06-22T08:27:30;28.40;72.10
47310;DHT22;33046;52.270;6.832;2023-06-22T08:29:37;28.30;72.70
47310;DHT22;33046;52.270;6.832;2023-06-22T08:31:44;28.40;73.00
47310;DHT22;33046;52.270;6.832;2023-06-22T08:33:51;28.30;72.90
47310;DHT22;33046;52.270;6.832;2023-06-22T08:35:58;28.30;73.20
47310;DHT22;33046;52.270;6.832;2023-06-22T08:38:05;28.30;73.50
47310;DHT22;33046;52.270;6.832;2023-06-22T08:40:12;28.30;74.00
47310;DHT22;33046;52.270;6.832;2023-06-22T08:42:19;28.30;73.90
47310;DHT22;33046;52.270;6.832;2023-06-22T08:44:27;28.30;73.60
47310;DHT22;33046;52.270;6.832;2023-06-22T08:46:34;28.30;73.60
47310;DHT22;33046;52.270;6.832;2023-06-22T08:48:43;28.40;73.60
47310;DHT22;33046;52.270;6.832;2023-06-22T08:50:50;28.40;73.40
47310;DHT22;33046;52.270;6.832;2023-06-22T08:52:56;28.50;73.80
47310;DHT22;33046;52.270;6.832;2023-06-22T08:55:06;28.60;73.70
47310;DHT22;33046;52.270;6.832;2023-06-22T08:57:13;28.60;73.20
47310;DHT22;33046;52.270;6.832;2023-06-22T08:59:20;28.60;73.10
47310;DHT22;33046;52.270;6.832;2023-06-22T09:01:28;28.60;73.00
47310;DHT22;33046;52.270;6.832;2023-06-22T09:03:35;28.60;73.10
47310;DHT22;33046;52.270;6.832;2023-06-22T09:05:42;28.60;72.50
47310;DHT22;33046;52.270;6.832;2023-06-22T09:07:48;28.50;72.50
47310;DHT22;33046;52.270;6.832;2023-06-22T09:09:56;28.50;72.70
47310;DHT22;33046;52.270;6.832;2023-06-22T09:12:03;28.50;72.00
47310;DHT22;33046;52.270;6.832;2023-06-22T09:14:10;28.40;71.90
47310;DHT22;33046;52.270;6.832;2023-06-22T09:16:17;28.40;72.60
47310;DHT22;33046;52.270;6.832;2023-06-22T09:18:25;28.40;72.00
47310;DHT22;33046;52.270;6.832;2023-06-22T09:20:32;28.40;72.10
47310;DHT22;33046;52.270;6.832;2023-06-22T09:22:39;28.40;72.10
47310;DHT22;33046;52.270;6.832;2023-06-22T09:24:46;28.40;72.30
47310;DHT22;33046;52.270;6.832;2023-06-22T09:26:53;28.50;73.20
47310;DHT22;33046;52.270;6.832;2023-06-22T09:28:59;28.60;74.10
47310;DHT22;33046;52.270;6.832;2023-06-22T09:31:06;28.80;73.50
47310;DHT22;33046;52.270;6.832;2023-06-22T09:33:13;28.70;72.20
47310;DHT22;33046;52.270;6.832;2023-06-22T09:35:21;28.60;71.90
47310;DHT22;33046;52.270;6.832;2023-06-22T09:37:28;28.60;71.80
47310;DHT22;33046;52.270;6.832;2023-06-22T09:39:35;28.60;71.70
47310;DHT22;33046;52.270;6.832;2023-06-22T09:41:42;28.60;72.30
47310;DHT22;33046;52.270;6.832;2023-06-22T09:43:49;28.60;72.40
47310;DHT22;33046;52.270;6.832;2023-06-22T09:45:56;28.50;72.20
47310;DHT22;33046;52.270;6.832;2023-06-22T09:48:03;28.50;72.00
47310;DHT22;33046;52.270;6.832;2023-06-22T09:50:10;28.50;72.30
47310;DHT22;33046;52.270;6.832;2023-06-22T09:52:18;28.40;72.20
47310;DHT22;33046;52.270;6.832;2023-06-22T09:54:25;28.40;72.20
47310;DHT22;33046;52.270;6.832;2023-06-22T09:56:32;28.30;71.90
47310;DHT22;33046;52.270;6.832;2023-06-22T09:58:39;28.30;71.90
47310;DHT22;33046;52.270;6.832;2023-06-22T10:00:46;28.20;71.50
47310;DHT22;33046;52.270;6.832;2023-06-22T10:02:53;28.20;72.40
47310;DHT22;33046;52.270;6.832;2023-06-22T10:05:00;28.20;72.60
47310;DHT22;33046;52.270;6.832;2023-06-22T10:07:07;28.20;72.90
47310;DHT22;33046;52.270;6.832;2023-06-22T10:09:15;28.10;73.20
47310;DHT22;33046;52.270;6.832;2023-06-22T10:11:22;28.10;73.70
47310;DHT22;33046;52.270;6.832;2023-06-22T10:13:29;28.10;72.10
47310;DHT22;33046;52.270;6.832;2023-06-22T10:15:36;28.10;72.40
47310;DHT22;33046;52.270;6.832;2023-06-22T10:17:43;28.10;72.80
47310;DHT22;33046;52.270;6.832;2023-06-22T10:19:50;28.10;72.90
47310;DHT22;33046;52.270;6.832;2023-06-22T10:21:57;28.10;72.50
47310;DHT22;33046;52.270;6.832;2023-06-22T10:24:05;28.10;73.00
47310;DHT22;33046;52.270;6.832;2023-06-22T10:26:13;28.00;72.70
47310;DHT22;33046;52.270;6.832;2023-06-22T10:28:20;28.00;72.70
47310;DHT22;33046;52.270;6.832;2023-06-22T10:30:27;28.00;72.50
47310;DHT22;33046;52.270;6.832;2023-06-22T10:32:34;28.00;72.40
47310;DHT22;33046;52.270;6.832;2023-06-22T10:34:41;27.90;72.80
47310;DHT22;33046;52.270;6.832;2023-06-22T10:36:48;27.90;73.20
47310;DHT22;33046;52.270;6.832;2023-06-22T10:38:54;27.80;73.50
47310;DHT22;33046;52.270;6.832;2023-06-22T10:41:01;27.80;73.60
47310;DHT22;33046;52.270;6.832;2023-06-22T10:43:09;27.70;73.90
47310;DHT22;33046;52.270;6.832;2023-06-22T10:45:16;27.70;74.50
47310;DHT22;33046;52.270;6.832;2023-06-22T10:47:23;27.70;74.60
47310;DHT22;33046;52.270;6.832;2023-06-22T10:49:30;27.70;75.10
47310;DHT22;33046;52.270;6.832;2023-06-22T10:51:37;27.70;75.20
47310;DHT22;33046;52.270;6.832;2023-06-22T10:53:44;27.70;74.90
47310;DHT22;33046;52.270;6.832;2023-06-22T10:55:51;27.60;74.30
47310;DHT22;33046;52.270;6.832;2023-06-22T10:58:01;27.60;74.40
47310;DHT22;33046;52.270;6.832;2023-06-22T11:00:11;27.60;73.90
47310;DHT22;33046;52.270;6.832;2023-06-22T11:02:18;27.60;74.00
47310;DHT22;33046;52.270;6.832;2023-06-22T11:04:25;27.60;73.80
47310;DHT22;33046;52.270;6.832;2023-06-22T11:06:32;27.50;73.60
47310;DHT22;33046;52.270;6.832;2023-06-22T11:08:38;27.50;74.20
47310;DHT22;33046;52.270;6.832;2023-06-22T11:10:47;27.50;73.90
47310;DHT22;33046;52.270;6.832;2023-06-22T11:12:54;27.60;73.50
47310;DHT22;33046;52.270;6.832;2023-06-22T11:15:01;27.60;74.00
47310;DHT22;33046;52.270;6.832;2023-06-22T11:17:09;27.60;73.80
47310;DHT22;33046;52.270;6.832;2023-06-22T11:19:16;27.60;73.70
47310;DHT22;33046;52.270;6.832;2023-06-22T11:21:23;27.60;74.70
47310;DHT22;33046;52.270;6.832;2023-06-22T11:23:30;27.60;75.40
47310;DHT22;33046;52.270;6.832;2023-06-22T11:25:37;27.60;75.20
47310;DHT22;33046;52.270;6.832;2023-06-22T11:27:44;27.60;74.70
47310;DHT22;33046;52.270;6.832;2023-06-22T11:29:51;27.60;74.90
47310;DHT22;33046;52.270;6.832;2023-06-22T11:31:58;27.60;74.50
47310;DHT22;33046;52.270;6.832;2023-06-22T11:34:06;27.60;74.30
47310;DHT22;33046;52.270;6.832;2023-06-22T11:36:14;27.60;74.60
47310;DHT22;33046;52.270;6.832;2023-06-22T11:38:21;27.60;75.40
47310;DHT22;33046;52.270;6.832;2023-06-22T11:40:28;27.60;74.50
47310;DHT22;33046;52.270;6.832;2023-06-22T11:42:35;27.60;74.90
47310;DHT22;33046;52.270;6.832;2023-06-22T11:44:42;27.60;75.40
47310;DHT22;33046;52.270;6.832;2023-06-22T11:46:49;27.60;75.80
47310;DHT22;33046;52.270;6.832;2023-06-22T11:48:56;27.60;75.20
47310;DHT22;33046;52.270;6.832;2023-06-22T11:51:04;27.50;75.80
47310;DHT22;33046;52.270;6.832;2023-06-22T11:53:11;27.50;75.80
47310;DHT22;33046;52.270;6.832;2023-06-22T11:55:18;27.40;76.00
47310;DHT22;33046;52.270;6.832;2023-06-22T11:57:24;27.50;76.10
47310;DHT22;33046;52.270;6.832;2023-06-22T11:59:31;27.40;76.30
47310;DHT22;33046;52.270;6.832;2023-06-22T12:01:38;27.40;76.10
47310;DHT22;33046;52.270;6.832;2023-06-22T12:03:45;27.40;76.60
47310;DHT22;33046;52.270;6.832;2023-06-22T12:05:52;27.40;76.20
47310;DHT22;33046;52.270;6.832;2023-06-22T12:08:00;27.30;76.20
47310;DHT22;33046;52.270;6.832;2023-06-22T12:10:08;27.30;76.30
47310;DHT22;33046;52.270;6.832;2023-06-22T12:12:15;27.30;76.80
47310;DHT22;33046;52.270;6.832;2023-06-22T12:14:22;27.30;76.80
47310;DHT22;33046;52.270;6.832;2023-06-22T12:16:28;27.30;76.80
47310;DHT22;33046;52.270;6.832;2023-06-22T12:18:35;27.20;77.80
47310;DHT22;33046;52.270;6.832;2023-06-22T12:20:42;27.20;77.70
47310;DHT22;33046;52.270;6.832;2023-06-22T12:22:49;27.10;77.90
47310;DHT22;33046;52.270;6.832;2023-06-22T12:24:57;27.10;77.20
47310;DHT22;33046;52.270;6.832;2023-06-22T12:27:04;27.00;77.60
47310;DHT22;33046;52.270;6.832;2023-06-22T12:29:11;27.00;78.00
47310;DHT22;33046;52.270;6.832;2023-06-22T12:31:18;27.00;78.20
47310;DHT22;33046;52.270;6.832;2023-06-22T12:33:25;26.90;78.30
47310;DHT22;33046;52.270;6.832;2023-06-22T12:35:32;26.90;78.40
47310;DHT22;33046;52.270;6.832;2023-06-22T12:37:39;26.90;78.50
47310;DHT22;33046;52.270;6.832;2023-06-22T12:39:46;26.80;78.00
47310;DHT22;33046;52.270;6.832;2023-06-22T12:41:55;26.80;78.30
47310;DHT22;33046;52.270;6.832;2023-06-22T12:44:02;26.80;79.60
47310;DHT22;33046;52.270;6.832;2023-06-22T12:46:09;26.70;80.20
47310;DHT22;33046;52.270;6.832;2023-06-22T12:48:16;26.70;79.70
47310;DHT22;33046;52.270;6.832;2023-06-22T12:50:23;26.70;80.20
47310;DHT22;33046;52.270;6.832;2023-06-22T12:52:30;26.70;80.80
47310;DHT22;33046;52.270;6.832;2023-06-22T12:54:37;26.70;81.50
47310;DHT22;33046;52.270;6.832;2023-06-22T12:56:50;26.70;82.40
47310;DHT22;33046;52.270;6.832;2023-06-22T12:58:58;26.70;84.20
47310;DHT22;33046;52.270;6.832;2023-06-22T13:01:05;26.70;83.10
47310;DHT22;33046;52.270;6.832;2023-06-22T13:03:12;26.60;83.50
47310;DHT22;33046;52.270;6.832;2023-06-22T13:05:19;26.60;84.50
47310;DHT22;33046;52.270;6.832;2023-06-22T13:07:26;26.60;85.70
47310;DHT22;33046;52.270;6.832;2023-06-22T13:09:33;26.60;87.60
47310;DHT22;33046;52.270;6.832;2023-06-22T13:11:41;26.50;88.70
47310;DHT22;33046;52.270;6.832;2023-06-22T13:13:48;26.50;88.90
47310;DHT22;33046;52.270;6.832;2023-06-22T13:15:56;26.50;89.90
47310;DHT22;33046;52.270;6.832;2023-06-22T13:18:03;26.40;90.00
47310;DHT22;33046;52.270;6.832;2023-06-22T13:20:10;26.40;90.50
47310;DHT22;33046;52.270;6.832;2023-06-22T13:22:29;26.30;90.60
47310;DHT22;33046;52.270;6.832;2023-06-22T13:24:36;26.30;91.00